Danville, CA

4:09 PM PST on February 06, 2016 (GMT -0800)
Northridge | | Change Station
CLOSE
Current Station
Personal Weather Station
Location: Danville, CA
Elevation: 568 ft
Nearby Weather Stations

Elev 568 ft 37.80 °N, 121.93 °W | Updated 3 minutes ago

Clear
Clear
63.7 °F
Feels Like 63.7 °F
N
1.7
Wind Variable Wind from SSW

Today
High -- | Low -- °F
--% Chance of Precip.
Yesterday
High -- | Low -- °F
Precip. -- in
Pressure 30.32 in
Visibility 10.0 miles
Clouds Clear
Dew Point 43 °F
Humidity 47%
Rainfall in
Snow Depth Not available.
7:07 AM 5:36 PM
Waning Crescent, 3% visible
METAR KLVK 062353Z 08008KT 10SM CLR 17/09 A3031 RMK AO2 SLP265 T01720089 10178 20100 56018
Pressure 30.32 in
Visibility 10.0 miles
Clouds Clear
Dew Point 43 °F
Humidity 47%
Rainfall in
Snow Depth Not available.
7:07 AM 5:36 PM
Waning Crescent, 3% visible
METAR KLVK 062353Z 08008KT 10SM CLR 17/09 A3031 RMK AO2 SLP265 T01720089 10178 20100 56018

10-Day Weather Forecast

Almanac

Astronomy

Feb. 06, 2016 Rise Set
Actual Time
Civil Twilight
Nautical Twilight
Astronomical Twilight
Moon
Length of Visible Light
Length of Day
Tomorrow will be .
, % of the Moon is Illuminated

Today's Extremes

State Highs State Lows

Community

WunderPhotos

Upload Photos

1,891,105 photos uploaded!

WunderBlog® & News

Nearby

Air Quality

  Air Quality AQ Index Pollutant
Not available.

Snow Depth

Station Depth Elevation

Earthquake Activity

City Distance Mag. Time & Date
Minimum magnitude displayed is 2.5.

Coastal Water Temperatures

Place Temperature

Stations

Nearby Weather Stations

Station Location Temp. Windchill Dew Point Humidity Wind Precip. Elev Updated Type
                   

Watches & Warnings

There are currently no watches in effect.